createdAt,value
2017-02-15T00:01:09.890Z,80.3
2017-02-15T00:02:23.006Z,79.52
2017-02-15T00:03:36.696Z,80.01
2017-02-15T00:04:49.787Z,80.01
2017-02-15T00:06:03.493Z,80.01
2017-02-15T00:07:16.014Z,79.62
2017-02-15T00:08:29.711Z,79.72
2017-02-15T00:09:43.394Z,79.82
2017-02-15T00:10:56.516Z,79.43
2017-02-15T00:12:10.238Z,78.36
2017-02-15T00:13:23.949Z,79.33
2017-02-15T00:14:36.487Z,78.85
2017-02-15T00:15:50.227Z,79.24
2017-02-15T00:17:03.304Z,79.43
2017-02-15T00:18:17.038Z,79.04
2017-02-15T00:19:30.739Z,77.78
2017-02-15T00:20:44.454Z,77.4
2017-02-15T00:21:57.541Z,76.72
2017-02-15T00:23:11.243Z,76.82
2017-02-15T00:24:24.362Z,75.75
2017-02-15T00:25:38.084Z,75.85
2017-02-15T00:26:51.806Z,75.5
2017-02-15T00:28:04.935Z,75.65
2017-02-15T00:29:18.628Z,75.17
2017-02-15T00:30:32.358Z,75.4
2017-02-15T00:31:46.126Z,74.69
2017-02-15T00:32:59.875Z,74.49
2017-02-15T00:34:13.608Z,74.34
2017-02-15T00:35:26.737Z,73.91
2017-02-15T00:36:39.838Z,74.49
2017-02-15T00:37:53.562Z,74.43
2017-02-15T00:39:07.340Z,73.63
2017-02-15T00:40:21.027Z,74.15
2017-02-15T00:41:34.805Z,74.43
2017-02-15T00:42:48.516Z,73.85
2017-02-15T00:44:02.242Z,72.98
2017-02-15T00:45:15.998Z,73.27
2017-02-15T00:46:29.703Z,73.27
2017-02-15T00:47:43.474Z,73.08
2017-02-15T00:48:57.157Z,73.95
2017-02-15T00:50:10.272Z,73.27
2017-02-15T00:51:23.952Z,74.24
2017-02-15T00:52:37.669Z,73.37
2017-02-15T00:53:51.362Z,73.37
2017-02-15T00:55:05.112Z,74.15
2017-02-15T00:56:18.803Z,73.18
2017-02-15T00:57:32.498Z,73.47
2017-02-15T00:58:46.227Z,74.05
2017-02-15T01:00:00.011Z,73.82
2017-02-15T01:01:12.541Z,73.91
2017-02-15T01:02:26.300Z,73.91
2017-02-15T01:03:39.433Z,73.72
2017-02-15T01:04:53.135Z,74.15
2017-02-15T01:06:06.862Z,74.01
2017-02-15T01:07:20.536Z,74.01
2017-02-15T01:08:34.301Z,74.15
2017-02-15T01:09:48.078Z,73.95
2017-02-15T01:11:01.783Z,73.75
2017-02-15T01:12:14.917Z,73.95
2017-02-15T01:13:28.018Z,74.15
2017-02-15T01:14:41.695Z,74.34
2017-02-15T01:15:55.457Z,74.34
2017-02-15T01:17:09.230Z,74.24
2017-02-15T01:18:22.963Z,74.34
2017-02-15T01:19:35.479Z,74.59
2017-02-15T01:20:49.213Z,74.92
2017-02-15T01:22:02.963Z,74.82
2017-02-15T01:23:16.659Z,75.11
2017-02-15T01:24:30.355Z,74.73
2017-02-15T01:25:43.483Z,74.53
2017-02-15T01:26:57.213Z,74.82
2017-02-15T01:28:10.319Z,74.63
2017-02-15T01:29:22.859Z,74.53
2017-02-15T01:30:36.561Z,74.63
2017-02-15T01:31:50.303Z,74.82
2017-02-15T01:33:04.059Z,75.4
2017-02-15T01:34:17.819Z,75.7
2017-02-15T01:35:31.540Z,75.7
2017-02-15T01:36:45.226Z,75.89
2017-02-15T01:37:58.935Z,76.28
2017-02-15T01:39:12.641Z,76.18
2017-02-15T01:40:26.335Z,76.56
2017-02-15T01:41:40.075Z,76.86
2017-02-15T01:42:53.180Z,76.66
2017-02-15T01:44:06.895Z,76.95
2017-02-15T01:45:19.981Z,76.86
2017-02-15T01:46:33.098Z,77.05
2017-02-15T01:47:46.835Z,77.34
2017-02-15T01:49:00.551Z,77.92
2017-02-15T01:50:14.299Z,77.44
2017-02-15T01:51:28.006Z,77.73
2017-02-15T01:52:41.721Z,77.92
2017-02-15T01:53:55.410Z,77.92
2017-02-15T01:55:09.124Z,77.44
2017-02-15T01:56:22.863Z,77.63
2017-02-15T01:57:36.606Z,77.63
2017-02-15T01:58:49.737Z,77.92
2017-02-15T02:00:03.424Z,77.92
2017-02-15T02:01:16.575Z,77.92
2017-02-15T02:02:29.712Z,78.59
2017-02-15T02:03:43.423Z,78.41
2017-02-15T02:04:57.121Z,78.89
2017-02-15T02:06:10.815Z,78.99
2017-02-15T02:07:24.535Z,79.27
2017-02-15T02:08:37.624Z,79.47
2017-02-15T02:09:50.757Z,79.57
2017-02-15T02:11:04.439Z,79.47
2017-02-15T02:12:18.187Z,79.57
2017-02-15T02:13:32.076Z,79.27
2017-02-15T02:14:45.178Z,79.37
2017-02-15T02:15:58.927Z,79.47
2017-02-15T02:17:12.632Z,79.37
2017-02-15T02:18:26.340Z,79.66
2017-02-15T02:19:40.002Z,79.76
2017-02-15T02:20:53.709Z,79.66
2017-02-15T02:22:06.228Z,80.24
2017-02-15T02:23:19.983Z,80.24
2017-02-15T02:24:33.726Z,80.34
2017-02-15T02:25:47.504Z,80.34
2017-02-15T02:27:01.256Z,80.34
2017-02-15T02:28:15.005Z,79.95
2017-02-15T02:29:28.733Z,80.54
2017-02-15T02:30:42.426Z,80.54
2017-02-15T02:31:56.152Z,80.73
2017-02-15T02:33:09.895Z,81.12
2017-02-15T02:34:23.624Z,81.12
2017-02-15T02:35:37.298Z,80.92
2017-02-15T02:36:51.043Z,80.92
2017-02-15T02:38:04.767Z,81.02
2017-02-15T02:39:17.892Z,80.73
2017-02-15T02:40:31.582Z,81.3
2017-02-15T02:41:45.312Z,81.3
2017-02-15T02:42:59.058Z,81.5
2017-02-15T02:44:12.781Z,81.79
2017-02-15T02:45:25.867Z,82.14
2017-02-15T02:46:39.563Z,82.04
2017-02-15T02:47:53.328Z,81.85
2017-02-15T02:49:07.090Z,82.04
2017-02-15T02:50:20.821Z,81.85
2017-02-15T02:51:33.340Z,81.6
2017-02-15T02:52:47.062Z,81.65
2017-02-15T02:54:00.783Z,81.7
2017-02-15T02:55:14.554Z,81.12
2017-02-15T02:56:28.308Z,81.3
2017-02-15T02:57:42.037Z,81.6
2017-02-15T02:58:55.740Z,81.5
2017-02-15T03:00:09.483Z,81.89
2017-02-15T03:01:23.202Z,81.75
2017-02-15T03:02:36.321Z,81.65
2017-02-15T03:03:50.018Z,81.65
2017-02-15T03:05:03.823Z,82.04
2017-02-15T03:06:16.947Z,82.14
2017-02-15T03:07:30.068Z,82.33
2017-02-15T03:08:43.763Z,82.43
2017-02-15T03:09:57.460Z,82.81
2017-02-15T03:11:11.187Z,82.72
2017-02-15T03:12:24.290Z,82.53
2017-02-15T03:13:37.980Z,82.91
2017-02-15T03:14:51.732Z,82.43
2017-02-15T03:16:05.514Z,82.33
2017-02-15T03:17:18.596Z,83.4
2017-02-15T03:18:31.667Z,82.53
2017-02-15T03:19:44.781Z,82.91
2017-02-15T03:20:58.482Z,83.11
2017-02-15T03:22:12.220Z,81.95
2017-02-15T03:23:25.377Z,82.43
2017-02-15T03:24:39.104Z,82.53
2017-02-15T03:25:52.841Z,81.85
2017-02-15T03:27:05.933Z,81.65
2017-02-15T03:28:19.668Z,81.46
2017-02-15T03:29:33.378Z,81.75
2017-02-15T03:30:47.084Z,81.46
2017-02-15T03:32:00.783Z,81.75
2017-02-15T03:33:14.553Z,82.04
2017-02-15T03:34:28.241Z,81.46
2017-02-15T03:35:41.374Z,81.65
2017-02-15T03:36:55.100Z,82.23
2017-02-15T03:38:08.768Z,81.75
2017-02-15T03:39:21.918Z,82.23
2017-02-15T03:40:35.658Z,82.43
2017-02-15T03:41:49.388Z,82.97
2017-02-15T03:43:03.091Z,83.11
2017-02-15T03:44:16.770Z,82.78
2017-02-15T03:45:30.481Z,82.78
2017-02-15T03:46:44.203Z,82.78
2017-02-15T03:47:57.955Z,83.36
2017-02-15T03:49:11.726Z,82.87
2017-02-15T03:50:25.424Z,82.87
2017-02-15T03:51:39.099Z,83.06
2017-02-15T03:52:52.837Z,83.06
2017-02-15T03:54:06.591Z,83.06
2017-02-15T03:55:19.726Z,83.26
2017-02-15T03:56:33.448Z,82.97
2017-02-15T03:57:47.157Z,83.06
2017-02-15T03:59:00.846Z,83.06
2017-02-15T04:00:14.584Z,81.62
2017-02-15T04:01:27.693Z,81.9
2017-02-15T04:02:41.402Z,81.75
2017-02-15T04:03:55.147Z,82.04
2017-02-15T04:05:08.932Z,81.65
2017-02-15T04:06:22.654Z,81.37
2017-02-15T04:07:36.421Z,81.85
2017-02-15T04:08:50.179Z,81.65
2017-02-15T04:10:03.838Z,82.04
2017-02-15T04:11:17.510Z,81.62
2017-02-15T04:12:30.689Z,81.56
2017-02-15T04:13:44.414Z,81.56
2017-02-15T04:14:58.146Z,81.65
2017-02-15T04:16:11.858Z,81.65
2017-02-15T04:17:24.989Z,81.85
2017-02-15T04:18:38.732Z,81.65
2017-02-15T04:19:52.412Z,81.65
2017-02-15T04:21:06.130Z,81.75
2017-02-15T04:22:19.225Z,82.72
2017-02-15T04:23:32.935Z,82.33
2017-02-15T04:24:46.639Z,82.1
2017-02-15T04:26:00.374Z,82.14
2017-02-15T04:27:14.125Z,82.2
2017-02-15T04:28:27.872Z,82.91
2017-02-15T04:29:41.609Z,83.45
2017-02-15T04:30:55.283Z,83.94
2017-02-15T04:32:08.999Z,84.71
2017-02-15T04:33:22.138Z,84.86
2017-02-15T04:34:35.864Z,85.25
2017-02-15T04:35:49.593Z,84.19
2017-02-15T04:37:03.348Z,82.73
2017-02-15T04:38:17.075Z,82.97
2017-02-15T04:39:30.793Z,83.36
2017-02-15T04:40:44.526Z,83.45
2017-02-15T04:41:58.234Z,84.42
2017-02-15T04:43:11.343Z,84.8
2017-02-15T04:44:25.084Z,82.73
2017-02-15T04:45:38.799Z,83.45
2017-02-15T04:46:52.478Z,82.78
2017-02-15T04:48:06.219Z,82.97
2017-02-15T04:49:19.943Z,83.06
2017-02-15T04:50:33.689Z,83.26
2017-02-15T04:51:46.830Z,83.06
2017-02-15T04:53:00.591Z,83.36
2017-02-15T04:54:14.318Z,83.45
2017-02-15T04:55:28.006Z,83.16
2017-02-15T04:56:41.769Z,83.64
2017-02-15T04:57:55.495Z,84.13
2017-02-15T04:59:09.210Z,84.38
2017-02-15T05:00:22.901Z,83.94
2017-02-15T05:01:36.621Z,84.09
2017-02-15T05:02:50.348Z,84.57
2017-02-15T05:04:04.067Z,84.67
2017-02-15T05:05:17.812Z,85.05
2017-02-15T05:06:30.938Z,85.05
2017-02-15T05:07:44.649Z,85.35
2017-02-15T05:08:58.361Z,84.86
2017-02-15T05:10:12.088Z,84.86
2017-02-15T05:11:25.808Z,84.77
2017-02-15T05:12:39.506Z,84.28
2017-02-15T05:13:53.237Z,84.57
2017-02-15T05:15:06.401Z,84.86
2017-02-15T05:16:20.177Z,84.86
2017-02-15T05:17:33.350Z,85.35
2017-02-15T05:18:46.515Z,84.67
2017-02-15T05:20:00.271Z,84.67
2017-02-15T05:21:12.782Z,84.57
2017-02-15T05:22:25.915Z,85.35
2017-02-15T05:23:39.686Z,84.57
2017-02-15T05:24:53.400Z,85.05
2017-02-15T05:26:07.100Z,85.53
2017-02-15T05:27:20.246Z,84.86
2017-02-15T05:28:33.413Z,85.44
2017-02-15T05:29:46.539Z,86.11
2017-02-15T05:31:00.273Z,85.78
2017-02-15T05:32:14.073Z,85.4
2017-02-15T05:33:27.769Z,86.17
2017-02-15T05:34:41.471Z,85.78
2017-02-15T05:35:55.198Z,85.69
2017-02-15T05:37:08.962Z,85.49
2017-02-15T05:38:22.688Z,85.21
2017-02-15T05:39:36.394Z,85.59
2017-02-15T05:40:49.534Z,85.49
2017-02-15T05:42:03.297Z,86.56
2017-02-15T05:43:16.435Z,85.88
2017-02-15T05:44:30.145Z,86.94
2017-02-15T05:45:43.295Z,86.85
2017-02-15T05:46:56.975Z,86.75
2017-02-15T05:48:10.722Z,86.17
2017-02-15T05:49:24.412Z,86.17
2017-02-15T05:50:38.087Z,86.36
2017-02-15T05:51:51.838Z,86.65
2017-02-15T05:53:05.549Z,86.94
2017-02-15T05:54:19.244Z,87.33
2017-02-15T05:55:33.036Z,87.43
2017-02-15T05:56:46.752Z,87.43
2017-02-15T05:58:00.534Z,87.33
2017-02-15T05:59:14.253Z,87.23
2017-02-15T06:00:27.965Z,87.38
2017-02-15T06:01:41.110Z,87.96
2017-02-15T06:02:54.875Z,88.25
2017-02-15T06:04:08.567Z,88.25
2017-02-15T06:05:22.328Z,88.73
2017-02-15T06:06:36.032Z,88.54
2017-02-15T06:07:49.717Z,89.12
2017-02-15T06:09:03.436Z,89.03
2017-02-15T06:10:15.991Z,88.73
2017-02-15T06:11:29.708Z,89.03
2017-02-15T06:12:43.467Z,89.03
2017-02-15T06:13:57.217Z,89.07
2017-02-15T06:15:10.393Z,88.54
2017-02-15T06:16:22.946Z,88.45
2017-02-15T06:17:36.615Z,88.54
2017-02-15T06:18:50.349Z,88.45
2017-02-15T06:20:04.022Z,88.54
2017-02-15T06:21:16.579Z,88.25
2017-02-15T06:22:30.325Z,88.25
2017-02-15T06:23:44.039Z,88.35
2017-02-15T06:24:57.177Z,88.54
2017-02-15T06:26:10.850Z,88.73
2017-02-15T06:27:24.581Z,88.73
2017-02-15T06:28:38.341Z,89.22
2017-02-15T06:29:50.832Z,89.41
2017-02-15T06:31:04.560Z,88.64
2017-02-15T06:32:18.276Z,88.64
2017-02-15T06:33:31.975Z,88.54
2017-02-15T06:34:45.252Z,88.73
2017-02-15T06:35:59.020Z,88.83
2017-02-15T06:37:11.591Z,89.03
2017-02-15T06:38:24.733Z,89.51
2017-02-15T06:39:38.467Z,89.7
2017-02-15T06:40:51.577Z,89.75
2017-02-15T06:42:05.276Z,89.89
2017-02-15T06:43:17.771Z,89.95
2017-02-15T06:44:31.517Z,90.43
2017-02-15T06:45:45.265Z,90.33
2017-02-15T06:47:01.910Z,90.43
2017-02-15T06:48:15.633Z,90.62
2017-02-15T06:49:29.329Z,90.33
2017-02-15T06:50:43.707Z,90.91
2017-02-15T06:51:57.461Z,91.39
2017-02-15T06:53:11.915Z,91.59
2017-02-15T06:54:25.645Z,91.3
2017-02-15T06:55:39.363Z,91.88
2017-02-15T06:56:53.152Z,91.88
2017-02-15T06:58:07.584Z,91.39
2017-02-15T06:59:21.995Z,91.2
2017-02-15T07:00:35.747Z,91.01
2017-02-15T07:01:50.143Z,90.91
2017-02-15T07:03:03.887Z,90.91
2017-02-15T07:04:17.602Z,91.39
2017-02-15T07:05:32.013Z,91.3
2017-02-15T07:06:45.815Z,91.3
2017-02-15T07:08:00.218Z,90.91
2017-02-15T07:09:13.384Z,90.53
2017-02-15T07:10:27.811Z,90.43
2017-02-15T07:11:42.176Z,90.23
2017-02-15T07:12:56.569Z,90.43
2017-02-15T07:14:10.957Z,90.72
2017-02-15T07:15:25.358Z,90.33
2017-02-15T07:16:39.737Z,90.43
2017-02-15T07:17:54.107Z,91.3
2017-02-15T07:19:08.529Z,91.01
2017-02-15T07:20:22.918Z,91.3
2017-02-15T07:21:37.319Z,91.35
2017-02-15T07:22:51.699Z,91.68
2017-02-15T07:24:06.104Z,91.74
2017-02-15T07:25:19.818Z,91.64
2017-02-15T07:26:34.189Z,91.74
2017-02-15T07:27:48.631Z,92.22
2017-02-15T07:29:03.019Z,92.41
2017-02-15T07:30:17.428Z,92.02
2017-02-15T07:31:30.531Z,92.22
2017-02-15T07:32:44.907Z,92.7
2017-02-15T07:33:59.307Z,92.8
2017-02-15T07:35:13.694Z,92.8
2017-02-15T07:36:26.821Z,93.18
2017-02-15T07:37:41.220Z,93.47
2017-02-15T07:38:54.964Z,93.33
2017-02-15T07:40:09.359Z,93.57
2017-02-15T07:41:23.750Z,93.37
2017-02-15T07:42:38.188Z,93.71
2017-02-15T07:43:51.954Z,93.08
2017-02-15T07:45:06.346Z,93.52
2017-02-15T07:46:20.769Z,94
2017-02-15T07:47:34.552Z,93.62
2017-02-15T07:48:48.973Z,93.43
2017-02-15T07:50:03.372Z,93.37
2017-02-15T07:51:17.146Z,92.85
2017-02-15T07:52:31.511Z,92.41
2017-02-15T07:53:45.299Z,91.93
2017-02-15T07:54:59.100Z,92.32
2017-02-15T07:56:13.513Z,91.64
2017-02-15T07:57:26.679Z,91.44
2017-02-15T07:58:41.101Z,92.32
2017-02-15T07:59:54.883Z,92.5
2017-02-15T08:01:09.294Z,91.74
2017-02-15T08:02:23.696Z,92.6
2017-02-15T08:03:38.109Z,92.22
2017-02-15T08:04:52.514Z,92.02
2017-02-15T08:06:06.272Z,92.41
2017-02-15T08:07:20.075Z,92.7
2017-02-15T08:08:33.860Z,92.5
2017-02-15T08:09:48.264Z,92.6
2017-02-15T08:11:02.717Z,92.32
2017-02-15T08:12:16.461Z,92.27
2017-02-15T08:13:30.852Z,92.32
2017-02-15T08:14:45.249Z,92.89
2017-02-15T08:15:59.650Z,93.57
2017-02-15T08:17:13.412Z,92.85
2017-02-15T08:18:27.810Z,93.43
2017-02-15T08:19:42.166Z,93.13
2017-02-15T08:20:56.565Z,93.28
2017-02-15T08:22:10.989Z,93.57
2017-02-15T08:23:25.433Z,93.33
2017-02-15T08:24:39.804Z,93.33
2017-02-15T08:25:54.185Z,94.29
2017-02-15T08:27:08.619Z,94.1
2017-02-15T08:28:22.382Z,94.1
2017-02-15T08:29:36.777Z,93.33
2017-02-15T08:30:51.189Z,93.62
2017-02-15T08:32:05.662Z,94.39
2017-02-15T08:33:20.097Z,94.39
2017-02-15T08:34:33.229Z,94.39
2017-02-15T08:35:47.629Z,94.87
2017-02-15T08:37:02.091Z,94.48
2017-02-15T08:38:16.516Z,94.48
2017-02-15T08:39:30.942Z,94.1
2017-02-15T08:40:45.386Z,93.33
2017-02-15T08:41:59.816Z,93.04
2017-02-15T08:43:13.595Z,93.43
2017-02-15T08:44:27.381Z,93.57
2017-02-15T08:45:41.208Z,92.6
2017-02-15T08:46:55.614Z,92.8
2017-02-15T08:48:10.062Z,92.75
2017-02-15T08:49:24.571Z,93.62
2017-02-15T08:50:37.658Z,93.57
2017-02-15T08:51:52.146Z,93.76
2017-02-15T08:53:06.561Z,94.58
2017-02-15T08:54:21.044Z,94.68
2017-02-15T08:55:35.481Z,94.68
2017-02-15T08:56:49.866Z,94.48
2017-02-15T08:58:04.313Z,94.48
2017-02-15T08:59:18.093Z,94.68
2017-02-15T09:00:32.520Z,94.78
2017-02-15T09:01:46.334Z,94.58
2017-02-15T09:03:00.084Z,94.1
2017-02-15T09:04:14.511Z,93.33
2017-02-15T09:05:28.908Z,92.6
2017-02-15T09:06:43.299Z,92.22
2017-02-15T09:07:57.755Z,91.74
2017-02-15T09:09:12.264Z,91.2
2017-02-15T09:10:26.668Z,90.14
2017-02-15T09:11:40.462Z,89.65
2017-02-15T09:12:54.931Z,89.65
2017-02-15T09:14:09.342Z,89.31
2017-02-15T09:15:23.250Z,89.22
2017-02-15T09:16:37.670Z,88.54
2017-02-15T09:17:52.065Z,88.45
2017-02-15T09:19:06.650Z,88.54
2017-02-15T09:20:21.049Z,88.64
2017-02-15T09:21:34.824Z,87.96
2017-02-15T09:22:49.255Z,88.01
2017-02-15T09:24:03.102Z,87.23
2017-02-15T09:25:16.966Z,86.85
2017-02-15T09:26:30.762Z,86.17
2017-02-15T09:27:45.204Z,85.3
2017-02-15T09:28:59.676Z,85.53
2017-02-15T09:30:14.096Z,84.95
2017-02-15T09:31:28.045Z,85.25
2017-02-15T09:32:42.515Z,85.35
2017-02-15T09:33:56.995Z,85.25
2017-02-15T09:35:10.858Z,84.67
2017-02-15T09:36:25.350Z,83.89
2017-02-15T09:37:39.858Z,83.55
2017-02-15T09:38:54.314Z,82.78
2017-02-15T09:40:08.807Z,81.95
2017-02-15T09:41:23.326Z,81.07
2017-02-15T09:42:37.190Z,80.44
2017-02-15T09:43:51.652Z,79.76
2017-02-15T09:45:06.188Z,80.54
2017-02-15T09:46:20.793Z,80.24
2017-02-15T09:47:34.039Z,80.88
2017-02-15T09:48:48.501Z,79.95
2017-02-15T09:50:01.644Z,81.4
2017-02-15T09:51:15.028Z,81.27
2017-02-15T09:52:28.826Z,80.34
2017-02-15T09:53:43.249Z,81.02
2017-02-15T09:54:57.756Z,80.11
2017-02-15T09:56:11.609Z,79.66
2017-02-15T09:57:25.476Z,80.69
2017-02-15T09:58:39.884Z,80.79
2017-02-15T09:59:54.299Z,80.2
2017-02-15T10:01:08.118Z,80.69
2017-02-15T10:02:21.895Z,81.27
2017-02-15T10:03:36.392Z,80.69
2017-02-15T10:04:50.949Z,80.4
2017-02-15T10:06:05.370Z,79.76
2017-02-15T10:07:19.330Z,79.27
2017-02-15T10:08:33.790Z,80.05
2017-02-15T10:09:47.656Z,79.66
2017-02-15T10:11:02.113Z,79.08
2017-02-15T10:12:15.310Z,79.17
2017-02-15T10:13:29.902Z,77.96
2017-02-15T10:14:44.484Z,77.76
2017-02-15T10:15:58.395Z,77.37
2017-02-15T10:17:12.497Z,78.15
2017-02-15T10:18:25.785Z,77.67
2017-02-15T10:19:40.279Z,76.99
2017-02-15T10:20:54.872Z,76.35
2017-02-15T10:22:08.813Z,74.84
2017-02-15T10:23:23.305Z,74.06
2017-02-15T10:24:37.817Z,72.55
2017-02-15T10:25:52.383Z,72.16
2017-02-15T10:27:06.971Z,72.09
2017-02-15T10:28:21.554Z,72.39
2017-02-15T10:29:36.147Z,71.12
2017-02-15T10:30:50.711Z,71.22
2017-02-15T10:32:04.655Z,72.03
2017-02-15T10:33:18.575Z,72.39
2017-02-15T10:34:32.576Z,72.67
2017-02-15T10:35:47.079Z,72.83
2017-02-15T10:37:01.564Z,72.35
2017-02-15T10:38:15.582Z,73.32
2017-02-15T10:39:29.492Z,72.64
2017-02-15T10:40:43.984Z,72.49
2017-02-15T10:41:58.630Z,71.03
2017-02-15T10:43:12.522Z,70.57
2017-02-15T10:44:26.575Z,70.15
2017-02-15T10:45:41.155Z,69.41
2017-02-15T10:46:55.852Z,68.28
2017-02-15T10:48:10.467Z,68.9
2017-02-15T10:49:25.062Z,68.87
2017-02-15T10:50:38.950Z,68.22
2017-02-15T10:51:52.829Z,67.63
2017-02-15T10:53:07.415Z,66.66
2017-02-15T10:54:21.484Z,65.23
2017-02-15T10:55:36.139Z,63.45
2017-02-15T10:56:50.750Z,63.94
2017-02-15T10:58:05.467Z,63.52
2017-02-15T10:59:18.726Z,62.87
2017-02-15T11:00:32.712Z,60.85
2017-02-15T11:01:47.215Z,60.2
2017-02-15T11:03:01.886Z,60.49
2017-02-15T11:04:16.440Z,60.1
2017-02-15T11:05:31.322Z,60.13
2017-02-15T11:06:45.274Z,60.52
2017-02-15T11:07:59.836Z,61.66
2017-02-15T11:09:14.364Z,62.8
2017-02-15T11:10:28.883Z,62.8
2017-02-15T11:11:43.436Z,61.44
2017-02-15T11:12:57.542Z,60.59
2017-02-15T11:14:11.665Z,58.87
2017-02-15T11:15:26.235Z,57.46
2017-02-15T11:16:40.969Z,57.1
2017-02-15T11:17:55.553Z,57.65
2017-02-15T11:19:10.199Z,58.63
2017-02-15T11:20:24.991Z,58.77
2017-02-15T11:21:39.683Z,57.34
2017-02-15T11:22:54.394Z,57.89
2017-02-15T11:24:08.389Z,58.4
2017-02-15T11:25:23.012Z,57.24
2017-02-15T11:26:37.825Z,56.68
2017-02-15T11:27:52.343Z,54.95
2017-02-15T11:29:06.766Z,55.41
2017-02-15T11:30:20.112Z,55.54
2017-02-15T11:31:34.946Z,56.68
2017-02-15T11:32:49.598Z,58.58
2017-02-15T11:34:04.035Z,58.77
2017-02-15T11:35:18.672Z,60.27
2017-02-15T11:36:32.774Z,60.34
2017-02-15T11:37:46.805Z,60.08
2017-02-15T11:39:01.412Z,60.47
2017-02-15T11:40:16.035Z,60.96
2017-02-15T11:41:30.614Z,61.15
2017-02-15T11:42:45.094Z,61.44
2017-02-15T11:43:59.716Z,60.38
2017-02-15T11:45:13.725Z,60.08
2017-02-15T11:46:28.319Z,59.14
2017-02-15T11:47:42.972Z,59.27
2017-02-15T11:48:57.518Z,58.51
2017-02-15T11:50:11.347Z,59.53
2017-02-15T11:51:25.851Z,58.65
2017-02-15T11:52:40.558Z,59.07
2017-02-15T11:54:07.949Z,57.74
2017-02-15T11:55:22.057Z,55.89
2017-02-15T11:56:36.577Z,58.22
2017-02-15T11:57:52.883Z,58.03
2017-02-15T11:59:07.550Z,59.36
2017-02-15T12:00:20.873Z,58.36
2017-02-15T12:01:35.464Z,57.71
2017-02-15T12:02:50.092Z,58.51
2017-02-15T12:04:04.121Z,58.49
2017-02-15T12:05:18.722Z,56.35
2017-02-15T12:06:41.097Z,54.94
2017-02-15T12:07:55.667Z,55.62
2017-02-15T12:09:10.440Z,54.65
2017-02-15T12:10:24.484Z,53.41
2017-02-15T12:11:39.200Z,55.52
2017-02-15T12:12:53.780Z,55.21
2017-02-15T12:14:08.199Z,55.82
2017-02-15T12:15:22.098Z,56.54
2017-02-15T12:16:36.989Z,56.29
2017-02-15T12:17:51.780Z,55.96
2017-02-15T12:19:06.414Z,55.01
2017-02-15T12:20:21.050Z,55.99
2017-02-15T12:21:35.639Z,55.99
2017-02-15T12:22:50.533Z,54.82
2017-02-15T12:24:05.044Z,56.27
2017-02-15T12:25:19.839Z,55.21
2017-02-15T12:26:34.457Z,54.09
2017-02-15T12:27:49.226Z,53.44
2017-02-15T12:29:03.126Z,52.85
2017-02-15T12:30:16.518Z,53.89
2017-02-15T12:31:30.942Z,53.05
2017-02-15T12:32:45.479Z,52.48
2017-02-15T12:33:59.997Z,53.44
2017-02-15T12:35:14.946Z,51.36
2017-02-15T12:36:28.971Z,53.48
2017-02-15T12:37:42.945Z,55.6
2017-02-15T12:38:57.600Z,52.58
2017-02-15T12:40:12.343Z,53.85
2017-02-15T12:41:26.316Z,53.48
2017-02-15T12:42:40.933Z,53.77
2017-02-15T12:43:55.517Z,52.99
2017-02-15T12:45:09.414Z,52.63
2017-02-15T12:46:24.368Z,53.27
2017-02-15T12:47:38.906Z,53.41
2017-02-15T12:48:53.663Z,54.06
2017-02-15T12:50:09.983Z,53.09
2017-02-15T12:51:24.609Z,50.97
2017-02-15T12:52:39.232Z,49.29
2017-02-15T12:53:53.687Z,49.71
2017-02-15T12:55:08.322Z,49.58
2017-02-15T12:56:22.517Z,50.04
2017-02-15T12:57:36.358Z,50.24
2017-02-15T12:58:51.007Z,49.95
2017-02-15T13:00:06.545Z,49.88
2017-02-15T13:01:21.315Z,49.04
2017-02-15T13:02:36.074Z,48.09
2017-02-15T13:03:50.977Z,48.02
2017-02-15T13:05:04.221Z,49.61
2017-02-15T13:06:19.157Z,50.92
2017-02-15T13:07:33.811Z,50.24
2017-02-15T13:08:48.361Z,51.19
2017-02-15T13:10:03.284Z,50.41
2017-02-15T13:11:17.586Z,48.88
2017-02-15T13:12:31.634Z,48.12
2017-02-15T13:13:47.348Z,47.07
2017-02-15T13:15:01.292Z,46.23
2017-02-15T13:16:15.217Z,47.04
2017-02-15T13:17:29.142Z,44.98
2017-02-15T13:18:43.009Z,45.18
2017-02-15T13:19:57.783Z,44.67
2017-02-15T13:21:12.313Z,44.89
2017-02-15T13:22:26.567Z,46.53
2017-02-15T13:23:41.365Z,46.14
2017-02-15T13:24:55.861Z,44.87
2017-02-15T13:26:09.894Z,45.45
2017-02-15T13:27:24.595Z,44.2
2017-02-15T13:28:39.289Z,43.03
2017-02-15T13:29:54.053Z,42.68
2017-02-15T13:31:08.618Z,43.15
2017-02-15T13:32:23.368Z,42.46
2017-02-15T13:33:38.310Z,42.68
2017-02-15T13:34:52.924Z,40.84
2017-02-15T13:36:07.541Z,40.56
2017-02-15T13:37:21.427Z,40.47
2017-02-15T13:38:36.230Z,39.09
2017-02-15T13:39:50.236Z,37.82
2017-02-15T13:41:04.185Z,37.74
2017-02-15T13:42:18.806Z,36.8
2017-02-15T13:43:33.827Z,37.58
2017-02-15T13:44:48.522Z,37.78
2017-02-15T13:46:03.070Z,36.98
2017-02-15T13:47:17.029Z,35.72
2017-02-15T13:48:30.994Z,35.05
2017-02-15T13:49:45.021Z,35.08
2017-02-15T13:50:59.645Z,33.72
2017-02-15T13:52:15.841Z,33.92
2017-02-15T13:53:30.390Z,33.94
2017-02-15T13:54:45.013Z,33.23
2017-02-15T13:55:58.887Z,32.93
2017-02-15T13:57:12.235Z,31.56
2017-02-15T13:58:28.375Z,31.28
2017-02-15T13:59:43.159Z,31.77
2017-02-15T14:00:57.143Z,31.87
2017-02-15T14:02:11.846Z,32.07
2017-02-15T14:03:26.889Z,31.66
2017-02-15T14:04:41.103Z,31.16
2017-02-15T14:05:55.519Z,31.56
2017-02-15T14:07:10.546Z,32.82
2017-02-15T14:08:24.498Z,32.61
2017-02-15T14:09:37.086Z,31.82
2017-02-15T14:10:51.687Z,31.04
2017-02-15T14:12:07.919Z,30.47
2017-02-15T14:13:23.205Z,29.92
2017-02-15T14:14:37.736Z,29.55
2017-02-15T14:15:53.069Z,30.26
2017-02-15T14:17:08.721Z,30.85
2017-02-15T14:18:23.226Z,31.23
2017-02-15T14:19:37.070Z,31.9
2017-02-15T14:20:50.316Z,32.48
2017-02-15T14:22:05.144Z,31.79
2017-02-15T14:23:19.232Z,32.39
2017-02-15T14:24:33.930Z,31.69
2017-02-15T14:25:47.803Z,32.08
2017-02-15T14:27:01.445Z,31.69
2017-02-15T14:28:16.260Z,32.76
2017-02-15T14:29:30.225Z,33.03
2017-02-15T14:30:44.862Z,33.41
2017-02-15T14:31:58.988Z,34
2017-02-15T14:33:13.675Z,33.43
2017-02-15T14:34:28.171Z,33.41
2017-02-15T14:35:44.717Z,32.64
2017-02-15T14:36:58.679Z,33.44
2017-02-15T14:38:13.340Z,33.82
2017-02-15T14:39:27.304Z,33.69
2017-02-15T14:40:41.893Z,33.69
2017-02-15T14:41:55.828Z,34.59
2017-02-15T14:43:10.753Z,33.8
2017-02-15T14:44:24.149Z,33.91
2017-02-15T14:45:38.090Z,33.8
2017-02-15T14:46:54.505Z,32.84
2017-02-15T14:48:08.474Z,31.79
2017-02-15T14:49:21.838Z,31.8
2017-02-15T14:50:36.000Z,32.49
2017-02-15T14:51:50.736Z,32.39
2017-02-15T14:53:05.405Z,32.39
2017-02-15T14:54:20.115Z,33.48
2017-02-15T14:55:34.072Z,34.03
2017-02-15T14:56:47.884Z,35.3
2017-02-15T14:58:02.219Z,34.89
2017-02-15T14:59:17.702Z,35.34
2017-02-15T15:00:31.564Z,36.4
2017-02-15T15:01:46.200Z,35.8
2017-02-15T15:03:00.146Z,36.29
2017-02-15T15:04:14.903Z,37.07
2017-02-15T15:05:31.649Z,38.13
2017-02-15T15:06:46.264Z,39.37
2017-02-15T15:08:01.507Z,40.7
2017-02-15T15:09:16.133Z,42.42
2017-02-15T15:10:30.111Z,44.06
2017-02-15T15:11:44.831Z,44.73
2017-02-15T15:12:58.827Z,46.19
2017-02-15T15:14:13.412Z,46
2017-02-15T15:15:28.166Z,43.95
2017-02-15T15:16:42.844Z,44.14
2017-02-15T15:17:56.727Z,44.04
2017-02-15T15:19:10.762Z,42.99
2017-02-15T15:20:24.201Z,42.91
2017-02-15T15:21:38.918Z,42.13
2017-02-15T15:22:53.495Z,41.25
2017-02-15T15:24:08.067Z,42.22
2017-02-15T15:25:22.065Z,41.54
2017-02-15T15:26:36.694Z,42.52
2017-02-15T15:27:51.756Z,41.93
2017-02-15T15:29:05.764Z,42.61
2017-02-15T15:30:20.291Z,41.76
2017-02-15T15:31:38.213Z,40.8
2017-02-15T15:32:52.838Z,41
2017-02-15T15:34:07.628Z,40.23
2017-02-15T15:35:22.242Z,39.82
2017-02-15T15:36:36.665Z,40.01
2017-02-15T15:37:51.523Z,41.68
2017-02-15T15:39:06.119Z,39.14
2017-02-15T15:40:20.552Z,39.35
2017-02-15T15:41:34.473Z,37.82
2017-02-15T15:42:49.039Z,37.35
2017-02-15T15:44:02.973Z,36.19
2017-02-15T15:45:17.681Z,35.52
2017-02-15T15:46:32.400Z,35.54
2017-02-15T15:47:47.244Z,35.36
2017-02-15T15:49:01.787Z,34.47
2017-02-15T15:50:15.991Z,33.97
2017-02-15T15:51:30.796Z,33.7
2017-02-15T15:52:45.536Z,34.11
2017-02-15T15:54:00.191Z,34.39
2017-02-15T15:55:14.190Z,34.39
2017-02-15T15:56:28.879Z,35.14
2017-02-15T15:57:42.787Z,36.01